Time;durP1;ratioP1;P1;durP2;ratioP2;P2;SDS_P1;SDS_P2;PMS_P1;PMS_P2;Temp;Humidity;BMP_temperature;BMP_pressure;BME280_temperature;BME280_humidity;BME280_pressure;Samples;Min_cycle;Max_cycle;Signal;HPM_P1;HPM_P2
2023/02/21 02:13:46;;;;;;;;;;;;;;;20.16;53.41;100656.09;4929789;29;1883;-71
2023/02/21 02:16:19;;;;;;;;;;;;;;;20.16;53.50;100647.47;4940341;28;1631;-70
2023/02/21 02:18:47;;;;;;;;;;;;;;;20.15;53.32;100648.88;4934504;28;2821;-70
2023/02/21 02:21:32;;;;;;;;;;;;;;;20.15;53.50;100654.63;4932772;28;1802;-70
2023/02/21 02:24:04;;;;;;;;;;;;;;;20.14;53.33;100651.03;4922344;29;2955;-71
2023/02/21 02:26:46;;;;;;;;;;;;;;;20.14;53.37;100647.41;4926609;28;2538;-71
2023/02/21 02:29:12;;;;;;;;;;;;;;;20.14;53.32;100642.41;4933159;28;2351;-70
2023/02/21 02:31:48;;;;;;;;;;;;;;;20.14;53.60;100650.28;4932396;28;3152;-71
2023/02/21 02:34:30;;;;;;;;;;;;;;;20.14;53.37;100661.78;4913100;29;2878;-70
2023/02/21 02:37:00;;;;;;;;;;;;;;;20.13;53.64;100648.78;4938843;29;1861;-71
2023/02/21 02:39:36;;;;;;;;;;;;;;;20.12;53.51;100667.44;4920201;29;2935;-71
2023/02/21 02:42:10;;;;;;;;;;;;;;;20.12;53.48;100655.94;4940325;29;1573;-71
2023/02/21 02:44:39;;;;;;;;;;;;;;;20.10;53.19;100647.97;4916808;29;2869;-71
2023/02/21 02:47:22;;;;;;;;;;;;;;;20.12;53.15;100641.56;4934890;28;1742;-71
2023/02/21 02:49:48;;;;;;;;;;;;;;;20.11;53.62;100654.44;4926330;29;1886;-71
2023/02/21 02:52:15;;;;;;;;;;;;;;;20.09;53.54;100650.09;4932032;28;1623;-71
2023/02/21 02:54:41;;;;;;;;;;;;;;;20.11;53.30;100654.44;4927782;28;2756;-71
2023/02/21 02:57:09;;;;;;;;;;;;;;;20.09;53.33;100652.97;4916906;29;2455;-72
2023/02/21 02:59:36;;;;;;;;;;;;;;;20.09;53.41;100655.84;4927118;29;1910;-71
2023/02/21 03:02:06;;;;;;;;;;;;;;;20.09;53.29;100655.84;4933561;28;2887;-71
2023/02/21 03:04:40;;;;;;;;;;;;;;;20.08;53.31;100645.72;4914485;29;2970;-71
2023/02/21 03:07:21;;;;;;;;;;;;;;;20.07;53.36;100632.75;4926527;29;2988;-70
2023/02/21 03:10:06;;;;;;;;;;;;;;;20.06;53.16;100642.75;4930291;28;3055;-70
2023/02/21 03:12:50;;;;;;;;;;;;;;;20.06;53.50;100637.00;4931579;28;3292;-71
2023/02/21 03:15:37;;;;;;;;;;;;;;;20.05;53.26;100635.53;4933616;28;3204;-71
2023/02/21 03:18:11;;;;;;;;;;;;;;;20.06;53.24;100627.66;4915898;29;2311;-71
2023/02/21 03:20:37;;;;;;;;;;;;;;;20.05;53.33;100635.53;4916879;29;2685;-72
2023/02/21 03:23:04;;;;;;;;;;;;;;;20.05;53.24;100629.78;4934820;29;1541;-72
2023/02/21 03:25:30;;;;;;;;;;;;;;;20.05;53.26;100618.28;4939771;28;2726;-71
2023/02/21 03:27:59;;;;;;;;;;;;;;;20.05;53.41;100635.53;4921632;29;2228;-72
2023/02/21 03:30:32;;;;;;;;;;;;;;;20.05;53.43;100631.94;4921519;29;1819;-72
2023/02/21 03:32:58;;;;;;;;;;;;;;;20.03;53.27;100626.81;4929506;29;2029;-71
2023/02/21 03:35:28;;;;;;;;;;;;;;;20.03;53.34;100640.47;4917186;29;2932;-71
2023/02/21 03:37:56;;;;;;;;;;;;;;;20.02;53.21;100619.59;4910384;29;1893;-72
2023/02/21 03:40:25;;;;;;;;;;;;;;;20.02;53.29;100625.34;4919000;29;2801;-71
2023/02/21 03:42:51;;;;;;;;;;;;;;;20.02;53.30;100627.47;4923522;29;1625;-71
2023/02/21 03:45:18;;;;;;;;;;;;;;;20.02;53.44;100636.09;4917122;29;2916;-71
2023/02/21 03:47:58;;;;;;;;;;;;;;;20.02;53.33;100636.84;4917963;28;1636;-71
2023/02/21 03:50:24;;;;;;;;;;;;;;;20.04;53.15;100631.19;4922297;29;1555;-71
2023/02/21 03:52:51;;;;;;;;;;;;;;;20.07;53.08;100635.63;4931869;28;1634;-71
2023/02/21 03:55:19;;;;;;;;;;;;;;;20.09;53.54;100641.47;4929612;28;2390;-71
2023/02/21 03:57:46;;;;;;;;;;;;;;;20.12;53.40;100632.94;4935330;28;2559;-71
2023/02/21 04:00:13;;;;;;;;;;;;;;;20.13;53.89;100635.16;4922540;29;1915;-71
2023/02/21 04:02:42;;;;;;;;;;;;;;;20.15;53.95;100631.63;4941319;29;1682;-71
2023/02/21 04:05:17;;;;;;;;;;;;;;;20.15;53.85;100629.50;4931934;29;2363;-71
2023/02/21 04:07:43;;;;;;;;;;;;;;;20.16;53.76;100627.34;4931820;29;2974;-71
2023/02/21 04:10:10;;;;;;;;;;;;;;;20.15;53.91;100632.38;4939834;29;2725;-71
2023/02/21 04:12:42;;;;;;;;;;;;;;;20.16;53.79;100633.84;4932974;28;3037;-71
2023/02/21 04:15:09;;;;;;;;;;;;;;;20.16;53.93;100638.84;4925601;29;2971;-71
2023/02/21 04:17:35;;;;;;;;;;;;;;;20.16;53.89;100636.72;4932395;29;3041;-71
2023/02/21 04:20:03;;;;;;;;;;;;;;;20.15;54.04;100638.13;4921645;29;2753;-71
2023/02/21 04:22:34;;;;;;;;;;;;;;;20.16;54.01;100641.72;4927863;29;2886;-70
2023/02/21 04:25:00;;;;;;;;;;;;;;;20.15;53.89;100634.50;4944249;29;1672;-72
2023/02/21 04:27:33;;;;;;;;;;;;;;;20.15;53.91;100646.00;4935341;28;2837;-71
2023/02/21 04:30:00;;;;;;;;;;;;;;;20.15;54.04;100643.88;4923401;29;2895;-71
2023/02/21 04:32:27;;;;;;;;;;;;;;;20.17;53.87;100643.97;4929499;29;1617;-72
2023/02/21 04:34:54;;;;;;;;;;;;;;;20.19;53.72;100654.81;4917727;29;1646;-72
2023/02/21 04:37:20;;;;;;;;;;;;;;;20.19;53.81;100649.06;4939265;29;1849;-71
2023/02/21 04:39:47;;;;;;;;;;;;;;;20.19;53.71;100649.06;4931757;29;2717;-72
2023/02/21 04:42:15;;;;;;;;;;;;;;;20.21;53.75;100657.78;4933894;28;2616;-72
2023/02/21 04:44:41;;;;;;;;;;;;;;;20.20;54.14;100668.53;4925191;29;1595;-71
2023/02/21 04:47:14;;;;;;;;;;;;;;;20.21;53.86;100660.66;4933138;29;1827;-71
2023/02/21 04:49:40;;;;;;;;;;;;;;;20.21;54.01;100663.53;4940185;29;2740;-72
2023/02/21 04:52:07;;;;;;;;;;;;;;;20.21;54.05;100660.66;4936276;29;2976;-72
2023/02/21 04:54:33;;;;;;;;;;;;;;;20.20;54.06;100662.03;4934712;29;2752;-72
2023/02/21 04:56:59;;;;;;;;;;;;;;;20.20;54.09;100674.28;4943006;29;2788;-72
2023/02/21 04:59:26;;;;;;;;;;;;;;;20.21;54.03;100663.53;4941609;29;1898;-72
2023/02/21 05:01:52;;;;;;;;;;;;;;;20.20;53.93;100667.78;4940547;29;2826;-72
2023/02/21 05:04:19;;;;;;;;;;;;;;;20.19;54.25;100655.53;4943938;29;1675;-72
2023/02/21 05:06:45;;;;;;;;;;;;;;;20.19;53.98;100660.56;4938866;29;1814;-71
2023/02/21 05:09:11;;;;;;;;;;;;;;;20.18;54.04;100665.56;4939496;29;1690;-71
2023/02/21 05:11:38;;;;;;;;;;;;;;;20.19;54.10;100672.06;4942573;28;2670;-71
2023/02/21 05:14:04;;;;;;;;;;;;;;;20.20;53.89;100677.16;4937799;28;2937;-70
2023/02/21 05:16:31;;;;;;;;;;;;;;;20.21;53.84;100675.03;4940935;29;2946;-72
2023/02/21 05:18:57;;;;;;;;;;;;;;;20.22;53.74;100670.75;4939681;28;2736;-72
2023/02/21 05:21:23;;;;;;;;;;;;;;;20.23;53.92;100678.00;4936949;29;2929;-72
2023/02/21 05:23:56;;;;;;;;;;;;;;;20.23;54.08;100667.22;4940958;29;1634;-72
2023/02/21 05:26:23;;;;;;;;;;;;;;;20.23;54.09;100670.09;4938686;28;2814;-71
2023/02/21 05:28:50;;;;;;;;;;;;;;;20.25;54.07;100666.59;4942955;29;1699;-72
2023/02/21 05:31:16;;;;;;;;;;;;;;;20.24;54.06;100659.34;4940621;29;2723;-72
2023/02/21 05:33:43;;;;;;;;;;;;;;;20.25;54.13;100663.72;4942627;29;1798;-72
2023/02/21 05:36:09;;;;;;;;;;;;;;;20.23;54.16;100664.34;4938577;29;2566;-72
2023/02/21 05:38:45;;;;;;;;;;;;;;;20.23;54.00;100666.50;4938083;29;1700;-72
2023/02/21 05:41:12;;;;;;;;;;;;;;;20.23;53.54;100663.63;4937539;28;2825;-68
2023/02/21 05:43:38;;;;;;;;;;;;;;;20.28;53.96;100668.16;4936881;28;3248;-69
2023/02/21 05:46:05;;;;;;;;;;;;;;;20.30;53.84;100666.09;4940339;29;3081;-68
2023/02/21 05:48:31;;;;;;;;;;;;;;;20.30;54.12;100671.13;4935230;29;2917;-67
2023/02/21 05:50:58;;;;;;;;;;;;;;;20.29;54.15;100678.25;4936235;29;2877;-64
2023/02/21 05:53:24;;;;;;;;;;;;;;;20.30;54.20;100676.88;4937748;29;2926;-64
2023/02/21 05:55:50;;;;;;;;;;;;;;;20.30;54.65;100677.59;4932388;29;2860;-63
2023/02/21 05:58:17;;;;;;;;;;;;;;;20.32;54.64;100684.81;4932159;28;2891;-65
2023/02/21 06:00:43;;;;;;;;;;;;;;;20.30;54.47;100688.38;4935635;29;3359;-64
2023/02/21 06:03:09;;;;;;;;;;;;;;;20.39;54.62;100690.19;4937458;29;2761;-67
2023/02/21 06:05:36;;;;;;;;;;;;;;;20.45;54.71;100690.44;4933478;29;2897;-63
2023/02/21 06:08:02;;;;;;;;;;;;;;;20.54;54.55;100694.41;4925248;28;3043;-63
2023/02/21 06:10:28;;;;;;;;;;;;;;;20.17;54.19;100695.69;4928522;29;2746;-65
2023/02/21 06:12:55;;;;;;;;;;;;;;;19.99;54.12;100700.63;4929697;29;3294;-72
2023/02/21 06:15:21;;;;;;;;;;;;;;;20.12;53.36;100696.19;4933837;29;2881;-70
2023/02/21 06:17:47;;;;;;;;;;;;;;;20.20;53.56;100700.16;4937534;29;2860;-75
2023/02/21 06:20:15;;;;;;;;;;;;;;;20.26;53.65;100706.16;4934472;29;2825;-76
2023/02/21 06:22:42;;;;;;;;;;;;;;;20.30;53.62;100711.38;4934011;29;2765;-74
2023/02/21 06:25:08;;;;;;;;;;;;;;;20.33;53.55;100721.56;4932177;28;2909;-77
2023/02/21 06:27:35;;;;;;;;;;;;;;;20.33;53.40;100721.56;4932593;28;2676;-76
2023/02/21 06:30:02;;;;;;;;;;;;;;;20.34;53.42;100717.31;4930076;29;2717;-76
2023/02/21 06:32:28;;;;;;;;;;;;;;;20.35;53.80;100727.41;4933408;29;2812;-71
2023/02/21 06:34:55;;;;;;;;;;;;;;;20.36;53.98;100726.00;4933043;29;2737;-70
2023/02/21 06:37:21;;;;;;;;;;;;;;;20.37;53.94;100736.13;4933749;29;2854;-70
2023/02/21 06:39:48;;;;;;;;;;;;;;;20.35;54.16;100736.03;4933940;28;2781;-70
2023/02/21 06:42:14;;;;;;;;;;;;;;;20.36;54.21;100731.03;4933470;29;2827;-70
2023/02/21 06:44:46;;;;;;;;;;;;;;;20.34;54.55;100740.31;4928603;29;2729;-69
2023/02/21 06:47:13;;;;;;;;;;;;;;;20.32;53.94;100743.09;4929332;29;2909;-71
2023/02/21 06:49:39;;;;;;;;;;;;;;;20.28;53.93;100743.66;4933061;29;2829;-66
2023/02/21 06:55:00;;;;;;;;;;;;;;;20.31;54.09;100753.09;4931604;28;3258;-71
2023/02/21 06:57:26;;;;;;;;;;;;;;;20.34;54.05;100745.31;4929842;29;2905;-71
2023/02/21 06:59:53;;;;;;;;;;;;;;;20.34;54.21;100760.44;4934771;29;2718;-73
2023/02/21 07:02:19;;;;;;;;;;;;;;;20.35;54.25;100756.16;4933113;29;2901;-72
2023/02/21 07:04:45;;;;;;;;;;;;;;;20.35;54.17;100764.78;4932070;29;2852;-72
2023/02/21 07:07:12;;;;;;;;;;;;;;;20.34;54.17;100771.94;4936266;29;2678;-72
2023/02/21 07:09:38;;;;;;;;;;;;;;;20.35;54.15;100772.69;4934648;29;2734;-72
2023/02/21 07:12:05;;;;;;;;;;;;;;;20.33;54.32;100779.06;4933782;29;2778;-72
2023/02/21 07:14:31;;;;;;;;;;;;;;;20.34;54.43;100780.56;4935332;29;3206;-72
2023/02/21 07:16:58;;;;;;;;;;;;;;;20.34;54.30;100792.06;4935932;29;2627;-72
2023/02/21 07:19:24;;;;;;;;;;;;;;;20.33;54.13;100793.44;4933891;28;2841;-72
2023/02/21 07:21:51;;;;;;;;;;;;;;;20.33;54.15;100790.56;4934919;28;2800;-72
2023/02/21 07:24:18;;;;;;;;;;;;;;;20.35;54.04;100799.31;4935396;28;2755;-72
2023/02/21 07:26:44;;;;;;;;;;;;;;;20.35;54.24;100807.94;4932914;28;2701;-72
2023/02/21 07:29:11;;;;;;;;;;;;;;;20.34;54.31;100809.34;4932197;28;3211;-72
2023/02/21 07:31:37;;;;;;;;;;;;;;;20.34;54.18;100809.34;4932108;28;2943;-73
2023/02/21 07:34:03;;;;;;;;;;;;;;;20.34;54.12;100809.34;4933586;28;2936;-72
2023/02/21 07:36:30;;;;;;;;;;;;;;;20.35;54.03;100828.06;4933875;28;2721;-72
2023/02/21 07:38:56;;;;;;;;;;;;;;;20.36;54.14;100832.41;4938312;28;2881;-72
2023/02/21 07:41:23;;;;;;;;;;;;;;;20.35;54.12;100825.19;4938753;28;2801;-71
2023/02/21 07:43:50;;;;;;;;;;;;;;;20.35;54.01;100825.19;4934435;28;2849;-72
2023/02/21 07:46:16;;;;;;;;;;;;;;;20.35;54.36;100835.94;4937284;28;2754;-72
2023/02/21 07:52:44;;;;;;;;;;;;;;;20.34;54.13;100838.09;4920702;28;2901;-72
2023/02/21 07:55:12;;;;;;;;;;;;;;;20.34;54.08;100843.06;4928344;28;2876;-72
2023/02/21 07:57:38;;;;;;;;;;;;;;;20.32;54.00;100840.88;4936622;28;1792;-72
2023/02/21 08:00:05;;;;;;;;;;;;;;;20.33;54.01;100847.34;4937271;28;2979;-73
2023/02/21 08:02:38;;;;;;;;;;;;;;;20.32;54.01;100863.13;4938955;28;2525;-73
2023/02/21 08:05:07;;;;;;;;;;;;;;;20.31;54.28;100859.50;4937892;28;2646;-71
2023/02/21 08:07:33;;;;;;;;;;;;;;;20.30;54.28;100870.25;4937252;28;2571;-73
2023/02/21 08:10:00;;;;;;;;;;;;;;;20.30;54.09;100872.41;4938455;28;2874;-73
2023/02/21 08:12:26;;;;;;;;;;;;;;;20.29;54.21;100873.78;4934915;28;1921;-73
2023/02/21 08:14:53;;;;;;;;;;;;;;;20.30;54.11;100872.41;4937721;28;2500;-73
2023/02/21 08:17:19;;;;;;;;;;;;;;;20.29;54.03;100876.66;4935872;28;2563;-73
2023/02/21 08:19:46;;;;;;;;;;;;;;;20.28;53.98;100880.94;4936520;28;2094;-72
2023/02/21 08:22:12;;;;;;;;;;;;;;;20.28;54.09;100881.66;4936143;28;1923;-72
2023/02/21 08:24:38;;;;;;;;;;;;;;;20.28;54.09;100869.44;4934000;28;2802;-73
2023/02/21 08:27:05;;;;;;;;;;;;;;;20.27;53.89;100879.44;4936264;28;2295;-72
2023/02/21 08:29:31;;;;;;;;;;;;;;;20.27;54.05;100873.69;4939010;28;2852;-72
2023/02/21 08:31:57;;;;;;;;;;;;;;;20.28;54.02;100883.81;4942444;28;3237;-74
2023/02/21 08:34:24;;;;;;;;;;;;;;;20.27;53.86;100882.31;4939684;28;1848;-72
2023/02/21 08:36:50;;;;;;;;;;;;;;;20.25;53.90;100891.59;4935429;28;2306;-73
2023/02/21 08:39:17;;;;;;;;;;;;;;;20.26;53.71;100883.72;4937443;28;2845;-73
2023/02/21 08:41:43;;;;;;;;;;;;;;;20.25;53.77;100894.47;4939033;28;2707;-72
2023/02/21 08:44:15;;;;;;;;;;;;;;;20.24;53.54;100898.00;4937227;28;2758;-72
2023/02/21 08:46:41;;;;;;;;;;;;;;;20.24;53.57;100900.88;4921076;28;2564;-71
2023/02/21 08:49:08;;;;;;;;;;;;;;;20.22;53.64;100895.75;4935040;28;2857;-72
2023/02/21 08:51:34;;;;;;;;;;;;;;;20.24;53.69;100900.88;4939446;28;1863;-72
2023/02/21 08:54:01;;;;;;;;;;;;;;;20.24;53.39;100892.25;4941059;28;2874;-71
2023/02/21 08:56:30;;;;;;;;;;;;;;;20.24;53.48;100898.00;4940652;28;1785;-72
2023/02/21 08:58:56;;;;;;;;;;;;;;;20.27;53.35;100890.94;4936261;28;2881;-73
2023/02/21 09:01:22;;;;;;;;;;;;;;;20.27;53.33;100899.56;4936231;28;2893;-73
2023/02/21 09:03:51;;;;;;;;;;;;;;;20.28;53.26;100912.56;4940722;28;2231;-72
2023/02/21 09:06:17;;;;;;;;;;;;;;;20.29;53.27;100900.41;4935193;28;2663;-73
2023/02/21 09:08:44;;;;;;;;;;;;;;;20.32;53.44;100906.25;4933544;28;2982;-73
2023/02/21 09:11:10;;;;;;;;;;;;;;;20.32;53.26;100904.13;4934733;28;2606;-73
2023/02/21 09:13:36;;;;;;;;;;;;;;;20.32;53.15;100901.25;4934272;28;2915;-72
2023/02/21 09:16:03;;;;;;;;;;;;;;;20.34;53.11;100907.09;4938010;28;2873;-73
2023/02/21 09:18:29;;;;;;;;;;;;;;;20.33;53.33;100899.13;4939008;28;3356;-73
2023/02/21 09:20:56;;;;;;;;;;;;;;;20.33;53.28;100905.59;4937190;28;2956;-74
2023/02/21 09:23:23;;;;;;;;;;;;;;;20.33;53.10;100911.34;4938982;28;2628;-73
2023/02/21 09:25:50;;;;;;;;;;;;;;;20.34;53.11;100917.84;4938237;28;2769;-73
2023/02/21 09:28:17;;;;;;;;;;;;;;;20.35;53.08;100910.72;4938594;28;2795;-72
2023/02/21 09:30:43;;;;;;;;;;;;;;;20.34;53.15;100912.09;4936721;28;2750;-73
2023/02/21 09:33:13;;;;;;;;;;;;;;;20.34;52.96;100912.09;4938323;28;2917;-72
2023/02/21 09:35:39;;;;;;;;;;;;;;;20.34;53.01;100918.63;4937067;28;1852;-72
2023/02/21 09:38:08;;;;;;;;;;;;;;;20.34;53.13;100912.09;4933449;28;2889;-73
2023/02/21 09:40:35;;;;;;;;;;;;;;;20.33;52.92;100925.75;4935561;28;2877;-72
2023/02/21 09:43:02;;;;;;;;;;;;;;;20.33;52.95;100922.88;4939218;28;1915;-73
2023/02/21 09:45:32;;;;;;;;;;;;;;;20.33;52.88;100928.63;4935817;28;2859;-72
2023/02/21 09:48:03;;;;;;;;;;;;;;;20.33;52.91;100927.88;4937147;28;2028;-71
2023/02/21 09:50:30;;;;;;;;;;;;;;;20.32;52.88;100929.25;4936648;28;2892;-73
2023/02/21 09:52:57;;;;;;;;;;;;;;;20.30;53.02;100927.78;4922655;28;1836;-73
2023/02/21 09:55:26;;;;;;;;;;;;;;;20.31;52.91;100931.38;4935209;28;2784;-72
2023/02/21 09:57:55;;;;;;;;;;;;;;;20.30;52.98;100930.66;4940657;28;1846;-73
2023/02/21 10:00:23;;;;;;;;;;;;;;;20.30;52.90;100935.66;4936926;28;2841;-73
2023/02/21 10:03:09;;;;;;;;;;;;;;;20.30;52.85;100938.53;4920014;28;2998;-72
2023/02/21 10:05:46;;;;;;;;;;;;;;;20.30;52.94;100941.41;4935562;28;2938;-73
2023/02/21 10:08:18;;;;;;;;;;;;;;;20.30;52.86;100947.16;4939795;28;2559;-72
2023/02/21 10:10:54;;;;;;;;;;;;;;;20.30;52.81;100941.41;4935856;28;2670;-72
2023/02/21 10:13:22;;;;;;;;;;;;;;;20.31;52.95;100948.66;4920110;28;1832;-72
2023/02/21 10:15:51;;;;;;;;;;;;;;;20.30;52.88;100941.41;4920777;28;1949;-72
2023/02/21 10:18:20;;;;;;;;;;;;;;;20.31;52.98;100942.91;4938364;28;1761;-72
2023/02/21 10:20:48;;;;;;;;;;;;;;;20.31;52.78;100948.66;4939168;28;1784;-73
2023/02/21 10:23:26;;;;;;;;;;;;;;;20.29;52.94;100934.94;5080819;27;2565;-71
2023/02/21 10:25:58;;;;;;;;;;;;;;;20.31;52.92;100937.13;5069527;28;2007;-71
2023/02/21 10:28:25;;;;;;;;;;;;;;;20.31;52.99;100940.03;5089300;28;1784;-72
2023/02/21 10:30:53;;;;;;;;;;;;;;;20.32;52.85;100946.50;5089297;28;2091;-71
2023/02/21 10:33:20;;;;;;;;;;;;;;;20.31;52.88;100948.66;5114853;27;1940;-71
2023/02/21 10:35:46;;;;;;;;;;;;;;;20.31;52.65;100951.53;5083713;28;2841;-71
2023/02/21 10:38:13;;;;;;;;;;;;;;;20.31;52.89;100963.03;5084577;28;2956;-71
2023/02/21 10:40:41;;;;;;;;;;;;;;;20.32;52.73;100961.66;5119923;27;1698;-71
2023/02/21 10:43:18;;;;;;;;;;;;;;;20.33;52.68;100971.75;5088380;28;2775;-71
2023/02/21 10:45:50;;;;;;;;;;;;;;;20.35;52.54;100960.34;5118314;27;1910;-71
2023/02/21 10:48:17;;;;;;;;;;;;;;;20.36;52.61;100956.06;5084533;28;1951;-71
2023/02/21 10:50:47;;;;;;;;;;;;;;;20.38;52.44;100961.19;5085555;28;1850;-70
2023/02/21 10:53:30;;;;;;;;;;;;;;;20.40;52.62;100962.03;5081394;28;1888;-71
2023/02/21 10:56:05;;;;;;;;;;;;;;;20.39;52.64;100951.91;5079794;28;3079;-72
2023/02/21 10:58:31;;;;;;;;;;;;;;;20.40;52.59;100967.03;5076788;28;1753;-72
2023/02/21 11:00:58;;;;;;;;;;;;;;;20.40;52.57;100967.78;5080319;28;1851;-73
2023/02/21 11:03:27;;;;;;;;;;;;;;;20.40;52.48;100973.53;5108316;27;2043;-73
2023/02/21 11:05:56;;;;;;;;;;;;;;;20.40;52.69;100973.53;5080139;28;1961;-72
2023/02/21 11:08:33;;;;;;;;;;;;;;;20.41;52.55;100974.25;5076982;28;1927;-72
2023/02/21 11:11:00;;;;;;;;;;;;;;;20.42;52.68;100973.63;5077974;28;2016;-72
2023/02/21 11:13:26;;;;;;;;;;;;;;;20.41;52.61;100971.38;5091354;28;1731;-72
2023/02/21 11:16:06;;;;;;;;;;;;;;;20.42;52.54;100978.66;5111635;27;1782;-72
2023/02/21 11:18:32;;;;;;;;;;;;;;;20.42;52.55;100964.25;5084449;28;2076;-71
2023/02/21 11:21:09;;;;;;;;;;;;;;;20.42;52.55;100965.00;5086998;28;1851;-72
2023/02/21 11:23:35;;;;;;;;;;;;;;;20.40;52.67;100962.03;5092241;28;1773;-71
2023/02/21 11:26:06;;;;;;;;;;;;;;;20.40;52.55;100959.16;5092454;28;1972;-70
2023/02/21 11:28:42;;;;;;;;;;;;;;;20.40;52.61;100962.03;5091463;28;1848;-71
2023/02/21 11:31:28;;;;;;;;;;;;;;;20.41;52.45;100962.75;5125491;27;1957;-70
2023/02/21 11:33:56;;;;;;;;;;;;;;;20.41;52.57;100954.13;5111981;27;2742;-69
2023/02/21 11:36:25;;;;;;;;;;;;;;;20.40;52.60;100964.91;5069647;28;2782;-71
2023/02/21 11:39:05;;;;;;;;;;;;;;;20.39;52.56;100954.78;5055582;28;2822;-73
2023/02/21 11:41:32;;;;;;;;;;;;;;;20.40;52.59;100953.41;5104339;27;2553;-71
2023/02/21 11:43:58;;;;;;;;;;;;;;;20.40;52.38;100958.41;5075603;28;2737;-70
2023/02/21 11:46:44;;;;;;;;;;;;;;;20.39;52.35;100951.91;5074984;28;2879;-70
2023/02/21 11:49:10;;;;;;;;;;;;;;;20.39;52.61;100960.56;5075531;28;3230;-70
2023/02/21 11:51:47;;;;;;;;;;;;;;;20.39;52.44;100954.78;5078984;28;2860;-66
2023/02/21 11:54:14;;;;;;;;;;;;;;;20.39;52.48;100954.78;5076771;28;2704;-70
2023/02/21 11:56:46;;;;;;;;;;;;;;;20.39;52.43;100960.56;5070834;28;3241;-71
2023/02/21 11:59:32;;;;;;;;;;;;;;;20.39;52.42;100954.78;5075198;28;1964;-71
2023/02/21 12:02:01;;;;;;;;;;;;;;;20.38;52.51;100958.31;5075117;28;2858;-70
2023/02/21 12:04:43;;;;;;;;;;;;;;;20.37;52.46;100969.06;5079661;28;1763;-71
2023/02/21 12:07:16;;;;;;;;;;;;;;;20.36;52.54;100969.72;5074037;28;2719;-71
2023/02/21 12:09:46;;;;;;;;;;;;;;;20.38;52.52;100975.56;5077265;28;1706;-71
2023/02/21 12:12:15;;;;;;;;;;;;;;;20.35;52.69;100971.84;5100952;27;2856;-71
2023/02/21 12:14:53;;;;;;;;;;;;;;;20.37;52.76;100974.84;5102501;27;2002;-72
2023/02/21 12:17:25;;;;;;;;;;;;;;;20.36;52.87;100973.31;5099568;27;2892;-72
2023/02/21 12:20:00;;;;;;;;;;;;;;;20.35;53.03;100971.84;5071911;28;2640;-72
2023/02/21 12:22:46;;;;;;;;;;;;;;;20.36;53.14;100972.59;5101859;27;1909;-71
2023/02/21 12:25:21;;;;;;;;;;;;;;;20.34;52.97;100976.13;5065835;28;2552;-72
2023/02/21 12:28:03;;;;;;;;;;;;;;;20.34;52.92;100976.13;5103144;27;2836;-72
2023/02/21 12:30:51;;;;;;;;;;;;;;;20.33;52.99;100968.88;5103970;27;3173;-72
2023/02/21 12:33:37;;;;;;;;;;;;;;;20.34;53.00;100975.38;5068686;28;2751;-72
2023/02/21 12:36:22;;;;;;;;;;;;;;;20.33;52.77;100968.88;5070699;28;1868;-72
2023/02/21 12:38:53;;;;;;;;;;;;;;;20.32;52.87;100964.53;5067908;28;2819;-70
2023/02/21 12:41:30;;;;;;;;;;;;;;;20.32;52.96;100970.28;5065449;28;2711;-69
2023/02/21 12:44:13;;;;;;;;;;;;;;;20.31;53.09;100965.91;5103273;27;1626;-71
2023/02/21 12:46:42;;;;;;;;;;;;;;;20.32;52.96;100955.13;5098775;27;2835;-71
2023/02/21 12:49:29;;;;;;;;;;;;;;;20.32;52.83;100961.66;5098730;27;2731;-70
2023/02/21 12:52:09;;;;;;;;;;;;;;;20.31;52.99;100960.16;5064824;28;1611;-72
2023/02/21 12:54:40;;;;;;;;;;;;;;;20.32;52.92;100958.00;5064805;28;2849;-72
2023/02/21 12:57:21;;;;;;;;;;;;;;;20.31;52.78;100968.78;5066799;28;1607;-71
2023/02/21 12:59:54;;;;;;;;;;;;;;;20.30;52.67;100970.19;5098423;27;2701;-71
2023/02/21 13:02:26;;;;;;;;;;;;;;;20.30;52.70;100967.31;5067116;28;2726;-71
2023/02/21 13:04:54;;;;;;;;;;;;;;;20.29;52.82;100960.81;5070147;28;2439;-71
2023/02/21 13:07:25;;;;;;;;;;;;;;;20.31;52.51;100957.28;5065491;28;1703;-70
2023/02/21 13:09:51;;;;;;;;;;;;;;;20.31;52.63;100954.41;5064937;28;2861;-71
2023/02/21 13:12:23;;;;;;;;;;;;;;;20.33;52.60;100956.63;5069186;28;2807;-72
2023/02/21 13:14:51;;;;;;;;;;;;;;;20.34;52.45;100958.88;5066603;28;2244;-72
2023/02/21 13:17:18;;;;;;;;;;;;;;;20.35;52.52;100953.84;5065114;28;2938;-72
2023/02/21 13:19:49;;;;;;;;;;;;;;;20.35;52.45;100960.34;5051740;28;2601;-71
2023/02/21 13:25:21;;;;;;;;;;;;;;;20.39;52.38;100956.94;5085763;27;2841;-70
2023/02/21 13:27:50;;;;;;;;;;;;;;;20.40;52.55;100961.28;5061338;28;1602;-70
2023/02/21 13:30:26;;;;;;;;;;;;;;;20.40;52.37;100953.41;5097318;27;2503;-73
2023/02/21 13:33:01;;;;;;;;;;;;;;;20.40;52.34;100953.41;5060728;28;2826;-71
2023/02/21 13:35:29;;;;;;;;;;;;;;;20.40;52.40;100949.78;5097776;27;1606;-71
2023/02/21 13:37:55;;;;;;;;;;;;;;;20.41;52.58;100949.16;5091317;27;2881;-70
2023/02/21 13:40:46;;;;;;;;;;;;;;;20.41;52.51;100957.00;5094722;28;3091;-70
2023/02/21 13:43:15;;;;;;;;;;;;;;;20.41;52.43;100952.03;5061193;28;2799;-72
2023/02/21 13:45:41;;;;;;;;;;;;;;;20.41;52.50;100952.03;5097311;27;2271;-71
2023/02/21 13:48:07;;;;;;;;;;;;;;;20.41;52.43;100945.50;5098387;27;2456;-71
2023/02/21 13:50:37;;;;;;;;;;;;;;;20.40;52.48;100944.78;5066083;28;1623;-72
2023/02/21 13:53:06;;;;;;;;;;;;;;;20.41;52.58;100948.38;5066278;28;2895;-70
2023/02/21 13:55:35;;;;;;;;;;;;;;;20.40;52.51;100939.00;5062178;28;1615;-72
2023/02/21 13:58:01;;;;;;;;;;;;;;;20.40;52.56;100944.78;5056617;28;2626;-69
2023/02/21 14:00:27;;;;;;;;;;;;;;;20.39;52.54;100945.44;5060207;28;3210;-72
2023/02/21 14:03:04;;;;;;;;;;;;;;;20.39;52.58;100949.03;5062198;28;2894;-69
2023/02/21 14:05:42;;;;;;;;;;;;;;;20.40;52.57;100950.53;5059581;28;2822;-68
2023/02/21 14:08:18;;;;;;;;;;;;;;;20.39;52.60;100936.81;5064795;28;3017;-68
2023/02/21 14:10:45;;;;;;;;;;;;;;;20.38;52.38;100938.91;5091817;27;2142;-71
2023/02/21 14:13:20;;;;;;;;;;;;;;;20.39;52.48;100948.31;5098719;27;2705;-71
2023/02/21 14:15:46;;;;;;;;;;;;;;;20.38;52.58;100953.28;5067857;28;2829;-71
2023/02/21 14:18:20;;;;;;;;;;;;;;;20.37;52.51;100948.94;5085705;27;2854;-71
2023/02/21 14:20:48;;;;;;;;;;;;;;;20.36;52.50;100950.31;5056783;28;3356;-71
2023/02/21 14:23:16;;;;;;;;;;;;;;;20.36;52.48;100956.06;5058800;28;3421;-71
2023/02/21 14:25:52;;;;;;;;;;;;;;;20.35;52.77;100953.84;5099480;28;3405;-70
2023/02/21 14:28:43;;;;;;;;;;;;;;;20.34;52.67;100944.50;5068381;28;2837;-70
2023/02/21 14:31:10;;;;;;;;;;;;;;;20.35;52.68;100948.84;5067024;28;2988;-70
2023/02/21 14:33:37;;;;;;;;;;;;;;;20.35;52.63;100945.97;5071505;28;2552;-71
2023/02/21 14:36:04;;;;;;;;;;;;;;;20.33;52.76;100951.63;5069351;28;2526;-70
2023/02/21 14:38:31;;;;;;;;;;;;;;;20.33;52.80;100954.50;5087962;28;3404;-70
2023/02/21 14:41:01;;;;;;;;;;;;;;;20.32;52.91;100950.16;5099643;28;3352;-71
2023/02/21 14:43:29;;;;;;;;;;;;;;;20.31;52.74;100948.66;5105511;28;2418;-71
2023/02/21 14:46:14;;;;;;;;;;;;;;;20.31;52.79;100960.16;5069231;28;2754;-71
2023/02/21 14:48:53;;;;;;;;;;;;;;;20.30;52.81;100952.94;5074391;28;2631;-70
2023/02/21 14:51:25;;;;;;;;;;;;;;;20.30;52.76;100958.66;5069017;28;2713;-70
2023/02/21 14:54:10;;;;;;;;;;;;;;;20.30;52.74;100952.94;5067036;28;2833;-70
2023/02/21 14:56:57;;;;;;;;;;;;;;;20.29;52.74;100948.53;5055798;28;2855;-70
2023/02/21 14:59:26;;;;;;;;;;;;;;;20.29;52.86;100957.16;5059613;28;2974;-71
2023/02/21 15:02:13;;;;;;;;;;;;;;;20.29;52.95;100957.16;5102709;28;3034;-72
2023/02/21 15:04:47;;;;;;;;;;;;;;;20.27;53.00;100960.72;5099885;28;3217;-71
2023/02/21 15:07:22;;;;;;;;;;;;;;;20.27;52.90;100960.72;5063286;28;2725;-71
2023/02/21 15:10:09;;;;;;;;;;;;;;;20.28;52.78;100958.56;5071342;28;2644;-71
2023/02/21 15:12:38;;;;;;;;;;;;;;;20.29;52.85;100962.91;5074458;28;2785;-70
2023/02/21 15:15:04;;;;;;;;;;;;;;;20.30;52.85;100962.28;5069161;28;2818;-71
2023/02/21 15:17:30;;;;;;;;;;;;;;;20.30;52.81;100970.19;5098469;27;3174;-71
2023/02/21 15:20:01;;;;;;;;;;;;;;;20.31;52.85;100960.16;5071162;28;2925;-71
2023/02/21 15:22:27;;;;;;;;;;;;;;;20.32;52.73;100961.66;5071379;28;3080;-72
2023/02/21 15:24:57;;;;;;;;;;;;;;;20.33;52.65;100966.00;5068697;28;2822;-72